Terminal Aerodrome Forecast
Issued by NWS Twin Cities, MN

Home | Current Version | Previous Version | Text Only | Print | Product List | Glossary On
Versions: 1 2 3 4 5 6 7 8 9 10 11 12 13 14 15 16 17
000
FTUS43 KMPX 251100 RRA
TAFEAU
TAF
KEAU 251145Z 2512/2612 23007KT P6SM OVC012
     FM251700 20007KT P6SM SCT015 OVC070
     FM252300 VRB03KT P6SM SCT012 OVC040
     FM260500 VRB03KT P6SM OVC015=

USA.gov is the U.S. government's official web portal to all federal, state and local government web resources and services.